createdAt,value
2022-07-25T00:01:49.996Z,6.32
2022-07-25T00:04:17.634Z,6.07
2022-07-25T00:06:46.012Z,6.18
2022-07-25T00:09:13.329Z,5.93
2022-07-25T00:11:40.466Z,5.35
2022-07-25T00:14:07.857Z,5.22
2022-07-25T00:16:35.088Z,5.10
2022-07-25T00:19:02.393Z,4.93
2022-07-25T00:21:29.524Z,4.93
2022-07-25T00:23:56.519Z,4.72
2022-07-25T00:26:23.698Z,4.72
2022-07-25T00:28:50.810Z,4.13
2022-07-25T00:31:17.703Z,5.05
2022-07-25T00:33:44.627Z,4.78
2022-07-25T00:36:11.683Z,4.85
2022-07-25T00:38:38.598Z,4.95
2022-07-25T00:41:05.711Z,4.88
2022-07-25T00:43:32.765Z,4.50
2022-07-25T00:46:00.590Z,4.75
2022-07-25T00:48:29.025Z,4.85
2022-07-25T00:50:57.138Z,5.13
2022-07-25T00:53:24.741Z,4.45
2022-07-25T00:55:52.802Z,5.00
2022-07-25T00:58:20.047Z,5.03
2022-07-25T01:00:48.396Z,5.07
2022-07-25T01:03:16.436Z,4.55
2022-07-25T01:05:43.392Z,4.07
2022-07-25T01:08:10.994Z,4.93
2022-07-25T01:10:38.163Z,4.20
2022-07-25T01:13:05.647Z,4.70
2022-07-25T01:15:32.916Z,4.30
2022-07-25T01:17:59.869Z,4.95
2022-07-25T01:20:29.655Z,4.40
2022-07-25T01:22:57.662Z,4.43
2022-07-25T01:25:25.566Z,4.70
2022-07-25T01:27:55.780Z,4.65
2022-07-25T01:30:25.138Z,4.25
2022-07-25T01:32:53.045Z,4.68
2022-07-25T01:35:20.133Z,4.47
2022-07-25T01:37:47.141Z,4.35
2022-07-25T01:40:14.904Z,3.97
2022-07-25T01:42:43.136Z,4.07
2022-07-25T01:45:11.572Z,4.15
2022-07-25T01:47:39.370Z,4.40
2022-07-25T01:50:07.360Z,4.53
2022-07-25T01:52:34.217Z,4.45
2022-07-25T01:55:01.068Z,4.03
2022-07-25T01:57:31.076Z,4.03
2022-07-25T01:59:59.548Z,3.60
2022-07-25T02:02:27.368Z,4.40
2022-07-25T02:04:54.536Z,4.28
2022-07-25T02:07:21.489Z,4.32
2022-07-25T02:09:52.120Z,4.65
2022-07-25T02:12:21.760Z,4.30
2022-07-25T02:14:48.612Z,4.20
2022-07-25T02:17:15.827Z,4.15
2022-07-25T02:19:42.912Z,4.20
2022-07-25T02:22:09.749Z,4.10
2022-07-25T02:24:37.396Z,5.13
2022-07-25T02:27:05.561Z,3.80
2022-07-25T02:29:33.509Z,3.35
2022-07-25T02:32:00.385Z,3.58
2022-07-25T02:34:27.603Z,2.85
2022-07-25T02:36:54.490Z,2.72
2022-07-25T02:39:21.573Z,2.72
2022-07-25T02:41:48.761Z,2.70
2022-07-25T02:44:15.563Z,2.47
2022-07-25T02:46:42.368Z,2.63
2022-07-25T02:49:10.153Z,2.67
2022-07-25T02:51:37.048Z,2.70
2022-07-25T02:54:04.008Z,2.60
2022-07-25T02:56:31.868Z,3.10
2022-07-25T02:58:59.332Z,2.75
2022-07-25T03:01:26.259Z,2.90
2022-07-25T03:03:53.246Z,3.15
2022-07-25T03:06:20.122Z,3.20
2022-07-25T03:08:46.964Z,2.90
2022-07-25T03:11:14.416Z,3.28
2022-07-25T03:13:41.497Z,3.08
2022-07-25T03:16:09.956Z,3.00
2022-07-25T03:18:37.307Z,3.63
2022-07-25T03:21:04.549Z,2.70
2022-07-25T03:23:32.455Z,3.15
2022-07-25T03:25:59.490Z,3.08
2022-07-25T03:28:26.360Z,3.00
2022-07-25T03:30:53.747Z,3.03
2022-07-25T03:33:20.695Z,2.70
2022-07-25T03:35:47.901Z,2.88
2022-07-25T03:38:14.737Z,2.63
2022-07-25T03:40:41.617Z,2.30
2022-07-25T03:43:09.061Z,2.35
2022-07-25T03:45:35.982Z,2.35
2022-07-25T03:48:03.093Z,1.88
2022-07-25T03:50:30.121Z,2.35
2022-07-25T03:52:56.977Z,1.90
2022-07-25T03:55:24.117Z,1.90
2022-07-25T03:57:51.124Z,2.45
2022-07-25T04:00:18.561Z,2.33
2022-07-25T04:02:45.588Z,1.90
2022-07-25T04:05:12.576Z,1.88
2022-07-25T04:07:39.904Z,1.90
2022-07-25T04:10:07.857Z,2.17
2022-07-25T04:12:35.041Z,2.10
2022-07-25T04:15:01.938Z,2.60
2022-07-25T04:17:28.776Z,1.70
2022-07-25T04:19:56.107Z,1.85
2022-07-25T04:22:23.590Z,2.00
2022-07-25T04:24:50.522Z,1.63
2022-07-25T04:27:17.535Z,1.90
2022-07-25T04:29:44.394Z,1.92
2022-07-25T04:32:11.340Z,2.00
2022-07-25T04:34:38.366Z,1.80
2022-07-25T04:37:05.306Z,2.30
2022-07-25T04:39:32.270Z,2.08
2022-07-25T04:41:59.167Z,1.88
2022-07-25T04:44:26.210Z,1.77
2022-07-25T04:46:53.419Z,2.00
2022-07-25T04:49:20.311Z,2.15
2022-07-25T04:51:47.227Z,1.70
2022-07-25T04:54:14.155Z,1.55
2022-07-25T04:56:40.997Z,1.90
2022-07-25T04:59:08.162Z,1.73
2022-07-25T05:01:35.966Z,1.80
2022-07-25T05:04:03.163Z,1.27
2022-07-25T05:06:30.170Z,1.70
2022-07-25T05:08:57.016Z,1.85
2022-07-25T05:11:24.015Z,1.80
2022-07-25T05:13:50.940Z,1.67
2022-07-25T05:16:17.833Z,1.92
2022-07-25T05:18:44.673Z,1.55
2022-07-25T05:21:12.692Z,1.88
2022-07-25T05:23:40.287Z,1.40
2022-07-25T05:26:07.160Z,1.48
2022-07-25T05:28:34.179Z,1.73
2022-07-25T05:31:01.477Z,1.95
2022-07-25T05:33:28.489Z,1.92
2022-07-25T05:35:55.450Z,1.52
2022-07-25T05:38:22.337Z,1.67
2022-07-25T05:40:52.473Z,1.60
2022-07-25T05:43:19.865Z,1.70
2022-07-25T05:45:47.843Z,1.30
2022-07-25T05:48:15.752Z,1.40
2022-07-25T05:50:42.879Z,1.50
2022-07-25T05:53:10.091Z,1.50
2022-07-25T05:55:40.247Z,1.45
2022-07-25T05:58:09.621Z,1.30
2022-07-25T06:00:38.118Z,1.42
2022-07-25T06:03:05.288Z,1.50
2022-07-25T06:05:32.623Z,1.52
2022-07-25T06:07:59.625Z,1.20
2022-07-25T06:10:26.618Z,1.38
2022-07-25T06:12:53.841Z,1.42
2022-07-25T06:15:22.518Z,1.20
2022-07-25T06:17:53.337Z,1.35
2022-07-25T06:20:20.630Z,1.30
2022-07-25T06:22:47.517Z,1.30
2022-07-25T06:25:15.180Z,1.35
2022-07-25T06:27:42.789Z,1.15
2022-07-25T06:30:19.664Z,1.20
2022-07-25T06:32:51.357Z,1.23
2022-07-25T06:35:18.948Z,1.40
2022-07-25T06:37:46.006Z,1.10
2022-07-25T06:40:13.511Z,1.00
2022-07-25T06:42:46.180Z,1.40
2022-07-25T06:45:14.452Z,1.25
2022-07-25T06:47:43.203Z,1.33
2022-07-25T06:50:14.783Z,1.23
2022-07-25T06:52:42.349Z,1.00
2022-07-25T06:55:11.184Z,1.20
2022-07-25T06:57:38.240Z,1.00
2022-07-25T07:00:10.205Z,1.02
2022-07-25T07:03:01.768Z,0.90
2022-07-25T07:05:33.511Z,0.90
2022-07-25T07:08:01.308Z,1.05
2022-07-25T07:10:28.857Z,1.15
2022-07-25T07:13:15.333Z,1.20
2022-07-25T07:15:50.266Z,1.30
2022-07-25T07:18:19.060Z,0.85
2022-07-25T07:20:47.513Z,1.33
2022-07-25T07:23:17.089Z,1.13
2022-07-25T07:25:47.278Z,1.08
2022-07-25T07:28:15.797Z,1.20
2022-07-25T07:33:30.129Z,1.00
2022-07-25T07:35:57.392Z,1.10
2022-07-25T07:38:25.258Z,1.10
2022-07-25T07:40:53.222Z,1.13
2022-07-25T07:43:20.651Z,1.13
2022-07-25T07:45:47.625Z,0.98
2022-07-25T07:48:14.658Z,0.93
2022-07-25T07:50:41.600Z,1.00
2022-07-25T07:53:08.577Z,1.00
2022-07-25T07:55:44.286Z,1.00
2022-07-25T07:58:16.986Z,0.90
2022-07-25T08:00:47.520Z,0.90
2022-07-25T08:03:20.523Z,1.25
2022-07-25T08:05:49.145Z,1.05
2022-07-25T08:08:17.020Z,1.17
2022-07-25T08:10:47.954Z,1.25
2022-07-25T08:13:28.430Z,1.08
2022-07-25T08:16:00.201Z,0.90
2022-07-25T08:18:30.184Z,1.13
2022-07-25T08:20:57.705Z,1.00
2022-07-25T08:23:25.863Z,1.20
2022-07-25T08:25:52.811Z,1.20
2022-07-25T08:28:20.399Z,1.20
2022-07-25T08:30:47.555Z,1.00
2022-07-25T08:33:18.526Z,1.02
2022-07-25T08:35:49.361Z,0.90
2022-07-25T08:38:16.657Z,0.90
2022-07-25T08:40:43.609Z,0.90
2022-07-25T08:43:16.068Z,0.90
2022-07-25T08:45:47.827Z,1.10
2022-07-25T08:48:18.842Z,0.90
2022-07-25T08:50:47.276Z,1.20
2022-07-25T08:53:32.666Z,1.10
2022-07-25T08:56:00.608Z,1.10
2022-07-25T08:58:27.552Z,1.02
2022-07-25T09:00:54.404Z,1.00
2022-07-25T09:03:21.891Z,0.90
2022-07-25T09:05:48.863Z,1.20
2022-07-25T09:08:20.611Z,0.90
2022-07-25T09:10:53.258Z,1.05
2022-07-25T09:13:22.745Z,0.90
2022-07-25T09:15:57.018Z,0.90
2022-07-25T09:18:27.573Z,0.80
2022-07-25T09:21:01.683Z,1.10
2022-07-25T09:23:38.157Z,1.25
2022-07-25T09:26:15.378Z,1.17
2022-07-25T09:28:48.304Z,1.23
2022-07-25T09:31:17.585Z,1.27
2022-07-25T09:34:01.787Z,1.00
2022-07-25T09:36:28.621Z,1.15
2022-07-25T09:39:02.893Z,1.13
2022-07-25T09:41:41.319Z,1.03
2022-07-25T09:44:30.381Z,1.02
2022-07-25T09:46:59.230Z,1.02
2022-07-25T09:49:27.039Z,1.20
2022-07-25T09:51:55.277Z,1.02
2022-07-25T09:54:24.215Z,1.27
2022-07-25T09:56:52.416Z,0.95
2022-07-25T09:59:21.787Z,1.13
2022-07-25T10:02:17.918Z,0.98
2022-07-25T10:05:08.294Z,1.10
2022-07-25T10:07:39.124Z,0.90
2022-07-25T10:10:07.101Z,0.70
2022-07-25T10:12:35.017Z,0.90
2022-07-25T10:15:13.988Z,0.85
2022-07-25T10:17:42.122Z,0.82
2022-07-25T10:20:11.246Z,0.60
2022-07-25T10:22:57.597Z,0.63
2022-07-25T10:25:25.131Z,0.50
2022-07-25T10:28:03.109Z,0.60
2022-07-25T10:30:39.593Z,0.50
2022-07-25T10:33:18.922Z,0.80
2022-07-25T10:35:46.492Z,0.70
2022-07-25T10:38:13.694Z,0.70
2022-07-25T10:40:46.748Z,0.90
2022-07-25T10:43:22.018Z,1.25
2022-07-25T10:45:57.220Z,0.70
2022-07-25T10:48:30.844Z,1.00
2022-07-25T10:51:08.385Z,0.80
2022-07-25T10:53:47.106Z,0.90
2022-07-25T10:56:27.177Z,1.00
2022-07-25T10:59:02.165Z,0.60
2022-07-25T11:01:36.741Z,0.73
2022-07-25T11:04:15.949Z,0.90
2022-07-25T11:06:43.665Z,0.90
2022-07-25T11:09:22.702Z,1.10
2022-07-25T11:11:57.399Z,0.90
2022-07-25T11:14:41.909Z,0.80
2022-07-25T11:17:15.823Z,0.70
2022-07-25T11:19:45.288Z,0.50
2022-07-25T11:22:12.389Z,0.50
2022-07-25T11:24:47.369Z,0.60
2022-07-25T11:27:40.755Z,0.60
2022-07-25T11:30:17.688Z,0.50
2022-07-25T11:32:50.006Z,0.40
2022-07-25T11:35:26.916Z,0.50
2022-07-25T11:37:55.453Z,1.10
2022-07-25T11:40:22.892Z,0.90
2022-07-25T11:42:53.114Z,1.10
2022-07-25T11:45:40.108Z,0.70
2022-07-25T11:48:13.552Z,0.88
2022-07-25T11:50:45.425Z,0.80
2022-07-25T11:53:14.926Z,0.90
2022-07-25T11:55:43.919Z,1.17
2022-07-25T11:58:15.497Z,1.00
2022-07-25T12:00:47.229Z,0.93
2022-07-25T12:03:20.474Z,0.82
2022-07-25T12:05:49.914Z,1.08
2022-07-25T12:08:20.874Z,1.00
2022-07-25T12:10:49.374Z,1.20
2022-07-25T12:13:24.617Z,1.20
2022-07-25T12:15:51.467Z,1.33
2022-07-25T12:18:18.604Z,1.52
2022-07-25T12:20:45.499Z,1.20
2022-07-25T12:23:14.567Z,1.23
2022-07-25T12:25:45.318Z,1.20
2022-07-25T12:28:13.124Z,1.30
2022-07-25T12:30:42.759Z,1.40
2022-07-25T12:33:10.125Z,1.30
2022-07-25T12:35:37.659Z,1.60
2022-07-25T12:38:05.295Z,1.60
2022-07-25T12:40:33.314Z,1.42
2022-07-25T12:43:00.559Z,1.52
2022-07-25T12:45:28.275Z,1.70
2022-07-25T12:47:55.974Z,1.70
2022-07-25T12:50:25.992Z,1.60
2022-07-25T12:52:53.797Z,1.60
2022-07-25T12:55:21.783Z,1.70
2022-07-25T12:57:50.245Z,1.73
2022-07-25T13:00:21.850Z,2.00
2022-07-25T13:02:52.210Z,1.85
2022-07-25T13:05:20.641Z,1.70
2022-07-25T13:07:49.337Z,2.00
2022-07-25T13:10:17.650Z,1.83
2022-07-25T13:12:45.017Z,2.00
2022-07-25T13:15:11.960Z,1.95
2022-07-25T13:17:40.572Z,1.70
2022-07-25T13:20:08.811Z,2.55
2022-07-25T13:22:35.773Z,2.42
2022-07-25T13:25:02.696Z,2.25
2022-07-25T13:27:29.516Z,2.25
2022-07-25T13:29:58.127Z,1.98
2022-07-25T13:32:26.834Z,2.10
2022-07-25T13:34:53.690Z,2.20
2022-07-25T13:37:20.813Z,2.10
2022-07-25T13:39:47.733Z,2.10
2022-07-25T13:42:14.592Z,2.30
2022-07-25T13:44:41.466Z,2.80
2022-07-25T13:47:08.818Z,2.50
2022-07-25T13:49:37.141Z,2.10
2022-07-25T13:52:04.678Z,2.10
2022-07-25T13:54:31.857Z,2.10
2022-07-25T13:56:59.212Z,2.20
2022-07-25T13:59:26.070Z,2.00
2022-07-25T14:01:52.982Z,1.75
2022-07-25T14:04:20.198Z,1.88
2022-07-25T14:06:52.249Z,1.67
2022-07-25T14:09:20.956Z,1.70
2022-07-25T14:11:48.273Z,1.88
2022-07-25T14:14:15.459Z,1.85
2022-07-25T14:16:42.368Z,1.92
2022-07-25T14:19:10.379Z,1.83
2022-07-25T14:21:38.099Z,1.60
2022-07-25T14:24:05.676Z,1.25
2022-07-25T14:26:35.048Z,1.58
2022-07-25T14:29:02.562Z,1.90
2022-07-25T14:31:29.736Z,1.67
2022-07-25T14:33:56.932Z,1.75
2022-07-25T14:36:24.181Z,1.52
2022-07-25T14:38:51.122Z,1.80
2022-07-25T14:41:19.746Z,1.80
2022-07-25T14:43:46.597Z,1.70
2022-07-25T14:46:14.059Z,1.50
2022-07-25T14:48:41.621Z,1.35
2022-07-25T14:51:08.702Z,1.30
2022-07-25T14:53:36.278Z,1.55
2022-07-25T14:56:05.735Z,1.25
2022-07-25T14:58:33.760Z,1.25
2022-07-25T15:01:00.994Z,1.25
2022-07-25T15:03:27.992Z,1.50
2022-07-25T15:05:54.868Z,1.30
2022-07-25T15:08:22.385Z,1.30
2022-07-25T15:10:49.415Z,1.13
2022-07-25T15:13:32.589Z,1.42
2022-07-25T15:16:01.105Z,1.50
2022-07-25T15:18:28.799Z,1.30
2022-07-25T15:20:55.727Z,0.90
2022-07-25T15:23:25.839Z,1.05
2022-07-25T15:26:01.767Z,0.82
2022-07-25T15:28:32.681Z,1.08
2022-07-25T15:30:59.607Z,1.10
2022-07-25T15:33:26.596Z,1.00
2022-07-25T15:35:53.580Z,1.20
2022-07-25T15:38:20.726Z,0.80
2022-07-25T15:40:48.212Z,1.10
2022-07-25T15:43:15.117Z,0.88
2022-07-25T15:45:46.037Z,0.80
2022-07-25T15:48:15.133Z,1.10
2022-07-25T15:50:48.573Z,1.17
2022-07-25T15:53:16.000Z,0.90
2022-07-25T15:55:43.576Z,1.00
2022-07-25T15:58:11.668Z,1.13
2022-07-25T16:00:39.960Z,0.80
2022-07-25T16:03:07.823Z,0.75
2022-07-25T16:05:35.653Z,0.65
2022-07-25T16:08:03.599Z,0.68
2022-07-25T16:10:32.880Z,0.60
2022-07-25T16:13:00.357Z,0.60
2022-07-25T16:15:28.556Z,0.50
2022-07-25T16:18:01.883Z,0.68
2022-07-25T16:20:30.136Z,0.55
2022-07-25T16:22:59.301Z,0.73
2022-07-25T16:25:28.243Z,0.60
2022-07-25T16:27:55.690Z,0.70
2022-07-25T16:30:23.025Z,1.08
2022-07-25T16:32:49.920Z,0.80
2022-07-25T16:35:17.114Z,0.90
2022-07-25T16:37:44.464Z,0.65
2022-07-25T16:40:12.688Z,0.70
2022-07-25T16:42:39.917Z,0.80
2022-07-25T16:45:07.970Z,1.00
2022-07-25T16:47:35.199Z,0.70
2022-07-25T16:50:02.344Z,0.95
2022-07-25T16:52:29.181Z,0.80
2022-07-25T16:54:56.028Z,0.80
2022-07-25T16:57:24.729Z,0.75
2022-07-25T16:59:53.698Z,0.95
2022-07-25T17:02:28.904Z,1.15
2022-07-25T17:04:57.507Z,1.17
2022-07-25T17:07:25.183Z,0.98
2022-07-25T17:09:52.408Z,1.20
2022-07-25T17:12:20.283Z,1.00
2022-07-25T17:14:48.119Z,1.20
2022-07-25T17:17:14.941Z,1.50
2022-07-25T17:19:42.384Z,1.00
2022-07-25T17:22:10.720Z,0.90
2022-07-25T17:24:39.521Z,1.20
2022-07-25T17:27:08.448Z,1.20
2022-07-25T17:29:36.206Z,1.05
2022-07-25T17:32:07.321Z,1.35
2022-07-25T17:34:34.723Z,1.20
2022-07-25T17:37:03.190Z,1.08
2022-07-25T17:39:34.482Z,1.23
2022-07-25T17:42:02.224Z,0.90
2022-07-25T17:44:29.159Z,1.20
2022-07-25T17:46:56.074Z,1.17
2022-07-25T17:49:23.017Z,1.00
2022-07-25T17:51:50.299Z,1.15
2022-07-25T17:54:17.745Z,1.13
2022-07-25T17:56:45.588Z,1.17
2022-07-25T17:59:13.241Z,1.00
2022-07-25T18:01:40.259Z,1.23
2022-07-25T18:04:07.707Z,1.00
2022-07-25T18:06:34.988Z,1.08
2022-07-25T18:09:02.237Z,1.27
2022-07-25T18:11:29.115Z,1.70
2022-07-25T18:13:56.015Z,1.40
2022-07-25T18:16:23.223Z,2.03
2022-07-25T18:18:50.133Z,1.63
2022-07-25T18:21:17.306Z,2.20
2022-07-25T18:23:44.116Z,1.42
2022-07-25T18:26:11.097Z,1.67
2022-07-25T18:28:38.367Z,2.85
2022-07-25T18:31:05.875Z,2.20
2022-07-25T18:33:33.045Z,1.98
2022-07-25T18:36:04.098Z,2.10
2022-07-25T18:38:34.392Z,2.17
2022-07-25T18:41:27.479Z,1.60
2022-07-25T18:43:50.254Z,1.98
2022-07-25T18:46:18.201Z,2.08
2022-07-25T18:48:46.245Z,2.25
2022-07-25T18:51:13.490Z,1.75
2022-07-25T18:53:42.825Z,2.25
2022-07-25T18:56:13.337Z,2.67
2022-07-25T18:58:40.944Z,2.17
2022-07-25T19:01:09.463Z,2.33
2022-07-25T19:03:37.752Z,2.58
2022-07-25T19:06:05.565Z,2.80
2022-07-25T19:08:33.060Z,2.47
2022-07-25T19:11:00.117Z,2.10
2022-07-25T19:13:48.205Z,2.60
2022-07-25T19:16:15.691Z,2.15
2022-07-25T19:18:43.006Z,2.33
2022-07-25T19:21:10.613Z,2.15
2022-07-25T19:23:37.658Z,2.40
2022-07-25T19:26:04.608Z,2.20
2022-07-25T19:28:31.583Z,2.67
2022-07-25T19:31:01.689Z,2.65
2022-07-25T19:33:34.830Z,2.03
2022-07-25T19:36:04.506Z,2.35
2022-07-25T19:38:31.452Z,2.15
2022-07-25T19:40:58.432Z,2.53
2022-07-25T19:43:25.626Z,2.33
2022-07-25T19:45:52.506Z,2.75
2022-07-25T19:48:23.815Z,2.60
2022-07-25T19:50:51.986Z,2.58
2022-07-25T19:53:19.153Z,2.35
2022-07-25T19:55:46.064Z,2.58
2022-07-25T19:58:12.888Z,2.00
2022-07-25T20:00:40.133Z,2.45
2022-07-25T20:03:07.281Z,2.08
2022-07-25T20:05:34.766Z,2.33
2022-07-25T20:08:01.815Z,2.15
2022-07-25T20:10:28.828Z,2.00
2022-07-25T20:12:59.566Z,2.08
2022-07-25T20:15:28.586Z,2.05
2022-07-25T20:17:56.930Z,2.00
2022-07-25T20:20:24.875Z,2.08
2022-07-25T20:22:52.108Z,1.98
2022-07-25T20:25:20.021Z,2.08
2022-07-25T20:27:49.854Z,2.08
2022-07-25T20:30:18.063Z,2.25
2022-07-25T20:32:45.237Z,2.20
2022-07-25T20:35:12.407Z,2.55
2022-07-25T20:37:39.489Z,2.20
2022-07-25T20:40:08.742Z,2.33
2022-07-25T20:42:37.989Z,2.28
2022-07-25T20:45:06.743Z,1.73
2022-07-25T20:47:34.611Z,2.08
2022-07-25T20:50:01.985Z,2.25
2022-07-25T20:52:30.419Z,2.10
2022-07-25T20:54:57.387Z,2.03
2022-07-25T20:57:24.386Z,1.73
2022-07-25T20:59:51.423Z,1.98
2022-07-25T21:02:18.822Z,2.20
2022-07-25T21:04:48.539Z,1.85
2022-07-25T21:07:16.925Z,1.83
2022-07-25T21:09:44.684Z,1.88
2022-07-25T21:12:11.615Z,2.17
2022-07-25T21:14:38.600Z,1.50
2022-07-25T21:17:06.914Z,1.42
2022-07-25T21:19:33.937Z,1.45
2022-07-25T21:22:02.180Z,1.33
2022-07-25T21:24:29.086Z,1.17
2022-07-25T21:26:55.919Z,1.20
2022-07-25T21:29:22.794Z,1.30
2022-07-25T21:31:50.039Z,1.13
2022-07-25T21:34:16.958Z,1.20
2022-07-25T21:36:43.814Z,1.10
2022-07-25T21:39:10.919Z,1.00
2022-07-25T21:41:38.024Z,1.33
2022-07-25T21:44:05.915Z,1.00
2022-07-25T21:46:32.927Z,1.40
2022-07-25T21:49:18.421Z,1.50
2022-07-25T21:52:05.830Z,1.40
2022-07-25T21:54:33.325Z,1.15
2022-07-25T21:57:00.177Z,1.30
2022-07-25T21:59:27.218Z,1.02
2022-07-25T22:01:54.089Z,1.20
2022-07-25T22:04:21.613Z,1.40
2022-07-25T22:06:48.600Z,1.33
2022-07-25T22:09:15.466Z,1.08
2022-07-25T22:11:46.434Z,1.15
2022-07-25T22:14:14.499Z,1.30
2022-07-25T22:16:42.173Z,1.25
2022-07-25T22:19:09.544Z,1.58
2022-07-25T22:21:36.831Z,1.30
2022-07-25T22:24:03.801Z,1.20
2022-07-25T22:26:30.624Z,1.40
2022-07-25T22:28:57.538Z,1.02
2022-07-25T22:31:24.446Z,1.25
2022-07-25T22:33:51.646Z,1.77
2022-07-25T22:36:18.699Z,1.40
2022-07-25T22:38:46.019Z,1.08
2022-07-25T22:41:13.147Z,1.25
2022-07-25T22:43:57.590Z,1.55
2022-07-25T22:46:28.577Z,1.50
2022-07-25T22:48:56.721Z,1.30
2022-07-25T22:51:24.286Z,1.50
2022-07-25T22:53:51.524Z,1.08
2022-07-25T22:56:18.957Z,1.40
2022-07-25T22:58:48.698Z,1.48
2022-07-25T23:01:17.903Z,1.60
2022-07-25T23:03:45.716Z,1.63
2022-07-25T23:06:13.296Z,1.23
2022-07-25T23:08:40.080Z,1.23
2022-07-25T23:11:07.004Z,1.30
2022-07-25T23:13:35.441Z,1.40
2022-07-25T23:16:03.413Z,1.50
2022-07-25T23:18:31.422Z,1.17
2022-07-25T23:20:58.495Z,1.20
2022-07-25T23:23:25.823Z,1.30
2022-07-25T23:25:52.860Z,1.42
2022-07-25T23:28:19.741Z,1.33
2022-07-25T23:30:47.204Z,1.10
2022-07-25T23:33:14.042Z,1.20
2022-07-25T23:35:42.415Z,1.35
2022-07-25T23:38:10.956Z,1.38
2022-07-25T23:40:37.996Z,1.42
2022-07-25T23:43:05.173Z,1.20
2022-07-25T23:45:32.584Z,1.45
2022-07-25T23:47:59.793Z,1.35
2022-07-25T23:50:26.897Z,1.38
2022-07-25T23:52:53.900Z,1.30
2022-07-25T23:55:20.822Z,1.85
2022-07-25T23:57:47.655Z,1.80
